createdAt,value
2023-02-11T00:00:42.507Z,74.32
2023-02-11T00:03:10.908Z,74.81
2023-02-11T00:05:38.753Z,74.54
2023-02-11T00:08:06.609Z,73.89
2023-02-11T00:10:34.645Z,75.37
2023-02-11T00:13:02.580Z,74.99
2023-02-11T00:15:30.341Z,75.46
2023-02-11T00:17:59.421Z,75.02
2023-02-11T00:20:27.180Z,74.25
2023-02-11T00:22:54.906Z,73.68
2023-02-11T00:25:22.636Z,72.89
2023-02-11T00:27:50.386Z,72.78
2023-02-11T00:30:18.240Z,74.34
2023-02-11T00:32:46.099Z,74.42
2023-02-11T00:35:15.572Z,74.45
2023-02-11T00:37:43.404Z,75.28
2023-02-11T00:40:12.788Z,75.51
2023-02-11T00:42:40.777Z,76.71
2023-02-11T00:45:09.751Z,77.25
2023-02-11T00:47:37.840Z,78.61
2023-02-11T00:50:06.599Z,78.11
2023-02-11T00:52:35.895Z,77.41
2023-02-11T00:55:03.707Z,77.17
2023-02-11T00:57:33.338Z,76.40
2023-02-11T01:00:01.072Z,75.85
2023-02-11T01:02:30.857Z,75.82
2023-02-11T01:04:59.746Z,75.23
2023-02-11T01:07:28.299Z,75.23
2023-02-11T01:09:57.643Z,74.61
2023-02-11T01:12:25.901Z,73.67
2023-02-11T01:14:53.711Z,72.67
2023-02-11T01:17:21.509Z,72.77
2023-02-11T01:19:51.094Z,73.21
2023-02-11T01:22:18.953Z,73.59
2023-02-11T01:24:48.357Z,74.73
2023-02-11T01:27:17.520Z,74.96
2023-02-11T01:29:45.726Z,73.99
2023-02-11T01:32:14.245Z,74.50
2023-02-11T01:34:41.976Z,75.41
2023-02-11T01:37:09.716Z,75.66
2023-02-11T01:39:37.482Z,76.19
2023-02-11T01:42:06.651Z,76.41
2023-02-11T01:44:38.467Z,76.07
2023-02-11T01:47:06.917Z,76.35
2023-02-11T01:49:37.445Z,75.81
2023-02-11T01:52:10.405Z,76.43
2023-02-11T01:55:00.656Z,78.53
2023-02-11T01:57:33.382Z,78.81
2023-02-11T02:00:09.222Z,77.45
2023-02-11T02:02:50.158Z,75.83
2023-02-11T02:05:25.525Z,74.92
2023-02-11T02:08:01.285Z,74.34
2023-02-11T02:10:31.318Z,74.33
2023-02-11T02:12:59.046Z,73.90
2023-02-11T02:15:34.115Z,75.50
2023-02-11T02:18:18.259Z,75.48
2023-02-11T02:21:27.658Z,75.25
2023-02-11T02:24:32.616Z,75.87
2023-02-11T02:27:20.576Z,74.96
2023-02-11T02:30:15.750Z,75.00
2023-02-11T02:32:56.825Z,75.94
2023-02-11T02:35:36.604Z,75.38
2023-02-11T02:38:09.582Z,74.53
2023-02-11T02:40:43.018Z,74.18
2023-02-11T02:43:12.163Z,74.14
2023-02-11T02:45:39.991Z,73.89
2023-02-11T02:48:29.329Z,73.25
2023-02-11T02:51:08.636Z,73.19
2023-02-11T02:53:51.021Z,74.04
2023-02-11T02:56:26.471Z,74.98
2023-02-11T02:59:23.266Z,74.16
2023-02-11T03:02:03.478Z,76.34
2023-02-11T03:04:41.746Z,76.86
2023-02-11T03:07:17.016Z,75.95
2023-02-11T03:09:55.816Z,75.12
2023-02-11T03:12:28.744Z,74.58
2023-02-11T03:14:56.432Z,73.90
2023-02-11T03:17:26.316Z,74.69
2023-02-11T03:19:57.806Z,74.88
2023-02-11T03:22:31.497Z,73.94
2023-02-11T03:25:03.364Z,74.57
2023-02-11T03:27:42.492Z,74.84
2023-02-11T03:30:14.089Z,75.58
2023-02-11T03:32:44.974Z,75.37
2023-02-11T03:35:19.635Z,76.58
2023-02-11T03:37:53.313Z,76.18
2023-02-11T03:40:23.454Z,75.18
2023-02-11T03:42:55.619Z,75.98
2023-02-11T03:45:26.043Z,75.22
2023-02-11T03:48:04.461Z,75.91
2023-02-11T03:50:36.808Z,75.79
2023-02-11T03:53:06.029Z,75.13
2023-02-11T03:55:37.983Z,75.00
2023-02-11T03:58:05.819Z,76.14
2023-02-11T04:00:36.609Z,79.20
2023-02-11T04:03:04.553Z,79.01
2023-02-11T04:05:37.295Z,78.65
2023-02-11T04:08:05.708Z,78.00
2023-02-11T04:10:33.542Z,77.97
2023-02-11T04:13:01.249Z,77.71
2023-02-11T04:15:29.149Z,76.81
2023-02-11T04:17:56.938Z,76.20
2023-02-11T04:20:24.883Z,75.68
2023-02-11T04:22:53.950Z,74.99
2023-02-11T04:25:22.066Z,74.78
2023-02-11T04:27:49.845Z,74.28
2023-02-11T04:30:17.576Z,74.12
2023-02-11T04:32:45.544Z,73.85
2023-02-11T04:35:13.322Z,74.12
2023-02-11T04:37:41.059Z,73.79
2023-02-11T04:40:11.421Z,74.65
2023-02-11T04:42:39.210Z,75.42
2023-02-11T04:45:07.968Z,74.73
2023-02-11T04:47:37.598Z,73.99
2023-02-11T04:50:05.710Z,73.96
2023-02-11T04:52:33.456Z,73.42
2023-02-11T04:55:01.181Z,73.09
2023-02-11T04:57:30.265Z,72.48
2023-02-11T04:59:58.023Z,73.05
2023-02-11T05:02:25.894Z,72.34
2023-02-11T05:04:53.659Z,71.96
2023-02-11T05:07:21.377Z,72.71
2023-02-11T05:09:49.221Z,71.85
2023-02-11T05:12:16.985Z,72.68
2023-02-11T05:14:46.129Z,71.62
2023-02-11T05:17:13.877Z,71.93
2023-02-11T05:19:42.840Z,72.23
2023-02-11T05:22:10.640Z,71.96
2023-02-11T05:24:38.376Z,71.86
2023-02-11T05:27:06.088Z,72.46
2023-02-11T05:29:33.859Z,71.92
2023-02-11T05:32:02.927Z,71.18
2023-02-11T05:34:30.708Z,71.92
2023-02-11T05:36:58.428Z,72.12
2023-02-11T05:39:26.215Z,72.49
2023-02-11T05:41:54.000Z,72.86
2023-02-11T05:44:22.049Z,72.64
2023-02-11T05:46:50.220Z,72.42
2023-02-11T05:49:19.618Z,72.45
2023-02-11T05:51:47.388Z,72.10
2023-02-11T05:54:15.201Z,72.40
2023-02-11T05:56:44.833Z,72.37
2023-02-11T05:59:14.696Z,72.15
2023-02-11T06:01:42.487Z,71.95
2023-02-11T06:04:10.251Z,71.99
2023-02-11T06:06:39.336Z,71.95
2023-02-11T06:09:07.137Z,71.15
2023-02-11T06:11:34.893Z,71.42
2023-02-11T06:14:02.941Z,71.09
2023-02-11T06:16:30.874Z,71.20
2023-02-11T06:18:58.706Z,70.96
2023-02-11T06:21:36.347Z,71.67
2023-02-11T06:24:11.813Z,71.42
2023-02-11T06:26:39.558Z,71.06
2023-02-11T06:29:07.340Z,71.15
2023-02-11T06:31:37.773Z,70.98
2023-02-11T06:34:06.048Z,71.29
2023-02-11T06:36:34.035Z,71.74
2023-02-11T06:39:01.792Z,71.21
2023-02-11T06:41:31.070Z,70.85
2023-02-11T06:43:58.788Z,70.75
2023-02-11T06:46:26.808Z,71.16
2023-02-11T06:48:54.632Z,70.85
2023-02-11T06:51:22.344Z,70.64
2023-02-11T06:53:50.567Z,71.19
2023-02-11T06:56:20.194Z,70.95
2023-02-11T06:58:53.389Z,71.64
2023-02-11T07:01:21.376Z,70.47
2023-02-11T07:03:52.452Z,71.11
2023-02-11T07:06:24.787Z,71.65
2023-02-11T07:08:55.623Z,71.27
2023-02-11T07:11:25.899Z,70.66
2023-02-11T07:13:57.541Z,71.28
2023-02-11T07:16:25.327Z,70.66
2023-02-11T07:18:53.214Z,70.68
2023-02-11T07:21:22.534Z,70.71
2023-02-11T07:23:50.395Z,70.62
2023-02-11T07:26:21.275Z,71.01
2023-02-11T07:28:48.972Z,70.36
2023-02-11T07:31:20.602Z,69.96
2023-02-11T07:33:48.545Z,69.34
2023-02-11T07:36:17.586Z,70.29
2023-02-11T07:38:45.519Z,69.68
2023-02-11T07:41:20.597Z,69.52
2023-02-11T07:43:48.715Z,68.37
2023-02-11T07:46:19.858Z,69.37
2023-02-11T07:48:47.966Z,68.58
2023-02-11T07:51:17.821Z,68.79
2023-02-11T07:53:45.861Z,68.43
2023-02-11T07:56:15.195Z,68.27
2023-02-11T07:58:43.343Z,68.21
2023-02-11T08:01:14.234Z,68.95
2023-02-11T08:03:43.779Z,67.88
2023-02-11T08:06:13.191Z,66.76
2023-02-11T08:08:41.276Z,65.99
2023-02-11T08:11:09.300Z,66.63
2023-02-11T08:13:37.637Z,67.20
2023-02-11T08:16:06.749Z,67.46
2023-02-11T08:18:35.817Z,67.36
2023-02-11T08:21:09.308Z,67.89
2023-02-11T08:23:38.116Z,67.89
2023-02-11T08:26:07.475Z,66.98
2023-02-11T08:28:36.659Z,66.64
2023-02-11T08:31:07.728Z,66.58
2023-02-11T08:33:35.655Z,66.67
2023-02-11T08:36:10.947Z,67.04
2023-02-11T08:38:39.130Z,66.19
2023-02-11T08:41:07.852Z,65.25
2023-02-11T08:43:35.647Z,63.38
2023-02-11T08:46:04.095Z,62.49
2023-02-11T08:48:31.826Z,60.45
2023-02-11T08:50:59.694Z,57.17
2023-02-11T08:53:28.772Z,47.87
2023-02-11T08:55:58.093Z,51.55
2023-02-11T08:58:25.913Z,50.27
2023-02-11T09:00:54.112Z,51.78
2023-02-11T09:03:22.072Z,52.46
2023-02-11T09:05:53.106Z,52.69
2023-02-11T09:08:21.752Z,56.08
2023-02-11T09:10:51.147Z,55.45
2023-02-11T09:13:19.104Z,54.13
2023-02-11T09:15:47.428Z,55.43
2023-02-11T09:18:15.304Z,55.21
2023-02-11T09:20:43.235Z,55.11
2023-02-11T09:23:12.350Z,54.04
2023-02-11T09:25:40.624Z,55.09
2023-02-11T09:28:11.413Z,55.41
2023-02-11T09:30:39.711Z,55.33
2023-02-11T09:33:07.685Z,55.86
2023-02-11T09:35:35.679Z,55.25
2023-02-11T09:38:03.497Z,54.00
2023-02-11T09:40:31.436Z,54.25
2023-02-11T09:43:05.172Z,54.13
2023-02-11T09:45:34.386Z,52.77
2023-02-11T09:48:06.578Z,53.32
2023-02-11T09:50:37.290Z,52.92
2023-02-11T09:53:12.785Z,53.44
2023-02-11T09:55:43.175Z,53.20
2023-02-11T09:58:15.337Z,53.55
2023-02-11T10:00:49.851Z,52.55
2023-02-11T10:03:43.530Z,53.10
2023-02-11T10:06:25.795Z,53.88
2023-02-11T10:09:03.150Z,54.10
2023-02-11T10:11:41.897Z,54.36
2023-02-11T10:14:22.496Z,53.48
2023-02-11T10:17:04.425Z,54.17
2023-02-11T10:19:44.163Z,53.19
2023-02-11T10:22:18.784Z,53.33
2023-02-11T10:24:53.398Z,52.18
2023-02-11T10:27:23.031Z,52.10
2023-02-11T10:29:54.747Z,51.24
2023-02-11T10:32:33.437Z,52.12
2023-02-11T10:35:10.429Z,51.85
2023-02-11T10:37:38.146Z,52.13
2023-02-11T10:40:08.317Z,51.63
2023-02-11T10:42:36.943Z,51.34
2023-02-11T10:45:07.278Z,51.96
2023-02-11T10:47:39.433Z,51.92
2023-02-11T10:50:20.945Z,51.79
2023-02-11T10:52:51.097Z,50.82
2023-02-11T10:55:21.648Z,51.79
2023-02-11T10:57:57.485Z,52.14
2023-02-11T11:00:34.169Z,53.24
2023-02-11T11:03:05.871Z,53.27
2023-02-11T11:05:36.162Z,53.26
2023-02-11T11:08:06.628Z,51.99
2023-02-11T11:10:43.419Z,52.69
2023-02-11T11:13:28.615Z,52.22
2023-02-11T11:16:16.532Z,52.69
2023-02-11T11:18:47.461Z,51.75
2023-02-11T11:21:18.972Z,51.98
2023-02-11T11:23:53.594Z,53.01
2023-02-11T11:26:25.059Z,54.67
2023-02-11T11:28:58.122Z,53.44
2023-02-11T11:31:29.526Z,55.40
2023-02-11T11:34:01.186Z,54.78
2023-02-11T11:36:40.197Z,53.44
2023-02-11T11:39:20.415Z,54.25
2023-02-11T11:41:57.380Z,54.56
2023-02-11T11:44:29.789Z,53.36
2023-02-11T11:47:31.225Z,51.89
2023-02-11T11:50:26.308Z,51.27
2023-02-11T11:53:01.188Z,53.09
2023-02-11T11:55:34.248Z,53.03
2023-02-11T11:58:02.058Z,51.37
2023-02-11T12:00:36.422Z,50.99
2023-02-11T12:03:34.010Z,50.15
2023-02-11T12:06:21.986Z,51.79
2023-02-11T12:09:01.676Z,51.75
2023-02-11T12:11:37.346Z,50.33
2023-02-11T12:14:14.866Z,49.19
2023-02-11T12:16:53.783Z,49.58
2023-02-11T12:19:45.460Z,51.99
2023-02-11T12:22:26.756Z,52.78
2023-02-11T12:25:19.743Z,51.96
2023-02-11T12:27:55.757Z,55.36
2023-02-11T12:30:40.003Z,53.74
2023-02-11T12:33:16.545Z,50.37
2023-02-11T12:35:54.941Z,52.01
2023-02-11T12:38:40.547Z,53.72
2023-02-11T12:41:42.969Z,53.29
2023-02-11T12:44:24.152Z,54.46
2023-02-11T12:47:02.120Z,53.95
2023-02-11T12:49:52.165Z,52.50
2023-02-11T12:52:41.532Z,54.27
2023-02-11T12:55:20.812Z,55.90
2023-02-11T12:57:51.076Z,55.01
2023-02-11T13:00:22.184Z,56.13
2023-02-11T13:02:57.350Z,56.14
2023-02-11T13:05:30.014Z,57.67
2023-02-11T13:08:03.681Z,57.88
2023-02-11T13:10:36.012Z,56.84
2023-02-11T13:13:18.192Z,56.79
2023-02-11T13:15:51.104Z,55.87
2023-02-11T13:18:28.513Z,55.84
2023-02-11T13:21:06.852Z,55.07
2023-02-11T13:23:42.633Z,59.23
2023-02-11T13:26:20.519Z,57.29
2023-02-11T13:28:53.968Z,57.46
2023-02-11T13:31:26.622Z,56.14
2023-02-11T13:33:54.473Z,55.53
2023-02-11T13:36:25.480Z,57.11
2023-02-11T13:38:56.927Z,55.82
2023-02-11T13:41:30.329Z,55.98
2023-02-11T13:44:00.500Z,57.40
2023-02-11T13:46:30.921Z,56.24
2023-02-11T13:48:59.474Z,54.87
2023-02-11T13:51:40.104Z,55.82
2023-02-11T13:54:09.828Z,54.67
2023-02-11T13:56:40.888Z,55.48
2023-02-11T13:59:45.523Z,55.79
2023-02-11T14:02:43.557Z,56.48
2023-02-11T14:05:43.655Z,57.36
2023-02-11T14:08:39.412Z,55.11
2023-02-11T14:11:12.288Z,55.52
2023-02-11T14:14:03.295Z,55.33
2023-02-11T14:16:38.051Z,55.27
2023-02-11T14:19:09.587Z,55.92
2023-02-11T14:21:40.795Z,56.14
2023-02-11T14:24:47.797Z,56.36
2023-02-11T14:27:25.553Z,56.04
2023-02-11T14:30:21.285Z,56.47
2023-02-11T14:33:06.834Z,57.70
2023-02-11T14:35:42.834Z,59.01
2023-02-11T14:38:20.678Z,58.95
2023-02-11T14:40:58.523Z,56.80
2023-02-11T14:43:31.707Z,58.07
2023-02-11T14:46:02.342Z,57.54
2023-02-11T14:48:32.906Z,57.56
2023-02-11T14:51:07.838Z,57.57
2023-02-11T14:53:37.677Z,56.51
2023-02-11T14:56:18.895Z,57.20
2023-02-11T14:58:51.805Z,56.75
2023-02-11T15:01:27.923Z,56.83
2023-02-11T15:03:56.700Z,56.96
2023-02-11T15:06:30.776Z,56.55
2023-02-11T15:09:03.817Z,56.67
2023-02-11T15:11:35.428Z,57.72
2023-02-11T15:14:09.648Z,57.13
2023-02-11T15:16:42.476Z,58.15
2023-02-11T15:19:21.025Z,58.10
2023-02-11T15:21:51.660Z,57.60
2023-02-11T15:24:25.359Z,57.64
2023-02-11T15:27:05.094Z,57.46
2023-02-11T15:29:38.259Z,58.40
2023-02-11T15:32:15.440Z,59.12
2023-02-11T15:34:44.142Z,60.07
2023-02-11T15:37:20.848Z,60.36
2023-02-11T15:39:48.630Z,59.88
2023-02-11T15:42:21.623Z,59.61
2023-02-11T15:45:11.905Z,60.22
2023-02-11T15:47:41.871Z,59.36
2023-02-11T15:50:22.142Z,60.09
2023-02-11T15:52:52.902Z,60.13
2023-02-11T15:55:21.645Z,59.58
2023-02-11T15:57:54.803Z,60.61
2023-02-11T16:00:25.493Z,60.14
2023-02-11T16:02:54.031Z,61.24
2023-02-11T16:05:31.699Z,60.52
2023-02-11T16:08:01.566Z,60.19
2023-02-11T16:10:31.986Z,61.79
2023-02-11T16:13:20.197Z,60.86
2023-02-11T16:15:52.356Z,60.52
2023-02-11T16:18:39.595Z,61.02
2023-02-11T16:21:16.728Z,61.03
2023-02-11T16:23:51.979Z,61.44
2023-02-11T16:26:27.885Z,61.59
2023-02-11T16:29:10.849Z,60.76
2023-02-11T16:31:40.955Z,61.74
2023-02-11T16:34:14.722Z,61.48
2023-02-11T16:36:42.910Z,60.63
2023-02-11T16:39:12.370Z,60.38
2023-02-11T16:41:40.291Z,61.83
2023-02-11T16:44:08.106Z,61.57
2023-02-11T16:46:38.822Z,63.05
2023-02-11T16:49:11.363Z,62.82
2023-02-11T16:51:41.542Z,63.70
2023-02-11T16:54:14.725Z,63.00
2023-02-11T16:56:43.113Z,64.12
2023-02-11T16:59:10.877Z,63.91
2023-02-11T17:01:40.320Z,63.01
2023-02-11T17:04:17.512Z,62.82
2023-02-11T17:06:45.297Z,63.29
2023-02-11T17:09:19.717Z,63.12
2023-02-11T17:11:47.761Z,62.82
2023-02-11T17:14:15.927Z,62.58
2023-02-11T17:16:47.058Z,63.85
2023-02-11T17:19:16.640Z,63.60
2023-02-11T17:21:44.877Z,63.13
2023-02-11T17:24:14.280Z,62.81
2023-02-11T17:26:45.181Z,63.04
2023-02-11T17:29:17.181Z,62.61
2023-02-11T17:31:45.916Z,62.53
2023-02-11T17:34:13.920Z,62.57
2023-02-11T17:36:42.003Z,62.75
2023-02-11T17:39:10.185Z,62.72
2023-02-11T17:41:38.858Z,62.95
2023-02-11T17:44:12.199Z,63.16
2023-02-11T17:46:39.973Z,62.89
2023-02-11T17:49:07.748Z,62.62
2023-02-11T17:51:37.425Z,63.35
2023-02-11T17:54:07.881Z,63.85
2023-02-11T17:56:37.431Z,64.01
2023-02-11T17:59:06.696Z,64.66
2023-02-11T18:01:37.047Z,65.01
2023-02-11T18:04:05.482Z,65.91
2023-02-11T18:06:34.817Z,65.46
2023-02-11T18:09:04.205Z,64.68
2023-02-11T18:11:33.729Z,64.71
2023-02-11T18:14:01.984Z,64.77
2023-02-11T18:16:30.462Z,65.77
2023-02-11T18:18:59.942Z,65.59
2023-02-11T18:21:28.633Z,65.10
2023-02-11T18:23:56.940Z,66.06
2023-02-11T18:26:27.948Z,66.51
2023-02-11T18:28:57.614Z,66.75
2023-02-11T18:31:26.419Z,66.18
2023-02-11T18:33:57.010Z,65.54
2023-02-11T18:36:28.682Z,64.99
2023-02-11T18:38:58.135Z,65.61
2023-02-11T18:41:25.976Z,66.10
2023-02-11T18:43:54.220Z,65.85
2023-02-11T18:46:24.323Z,65.12
2023-02-11T18:48:55.841Z,64.72
2023-02-11T18:51:24.172Z,65.29
2023-02-11T18:53:53.530Z,65.29
2023-02-11T18:56:24.558Z,65.81
2023-02-11T18:58:52.402Z,66.78
2023-02-11T19:01:22.841Z,67.29
2023-02-11T19:03:51.613Z,68.65
2023-02-11T19:06:21.659Z,67.94
2023-02-11T19:08:49.492Z,66.64
2023-02-11T19:11:19.831Z,66.81
2023-02-11T19:13:48.749Z,66.54
2023-02-11T19:16:19.689Z,66.43
2023-02-11T19:18:47.546Z,66.43
2023-02-11T19:21:15.366Z,67.24
2023-02-11T19:23:43.115Z,66.54
2023-02-11T19:26:10.833Z,66.31
2023-02-11T19:28:39.910Z,66.65
2023-02-11T19:31:09.367Z,67.19
2023-02-11T19:33:37.690Z,66.86
2023-02-11T19:36:07.072Z,67.02
2023-02-11T19:38:35.634Z,66.66
2023-02-11T19:41:03.745Z,67.03
2023-02-11T19:43:31.868Z,66.72
2023-02-11T19:46:02.605Z,66.55
2023-02-11T19:48:30.558Z,66.43
2023-02-11T19:50:58.572Z,66.80
2023-02-11T19:53:26.336Z,66.41
2023-02-11T19:55:54.442Z,66.45
2023-02-11T19:58:22.292Z,67.08
2023-02-11T20:00:50.057Z,69.41
2023-02-11T20:03:19.157Z,68.51
2023-02-11T20:05:47.742Z,68.01
2023-02-11T20:08:16.983Z,67.74
2023-02-11T20:10:44.727Z,67.67
2023-02-11T20:13:12.402Z,67.24
2023-02-11T20:15:40.312Z,67.16
2023-02-11T20:18:08.118Z,67.22
2023-02-11T20:20:38.957Z,66.98
2023-02-11T20:23:06.687Z,68.49
2023-02-11T20:25:34.410Z,67.63
2023-02-11T20:28:02.259Z,67.77
2023-02-11T20:30:30.170Z,67.20
2023-02-11T20:32:58.450Z,67.09
2023-02-11T20:35:26.172Z,67.28
2023-02-11T20:37:55.299Z,67.32
2023-02-11T20:40:22.976Z,66.86
2023-02-11T20:42:50.744Z,67.34
2023-02-11T20:45:18.647Z,68.28
2023-02-11T20:47:46.338Z,68.30
2023-02-11T20:50:14.148Z,68.22
2023-02-11T20:52:41.957Z,68.53
2023-02-11T20:55:11.010Z,68.29
2023-02-11T20:57:38.784Z,67.87
2023-02-11T21:00:07.776Z,67.53
2023-02-11T21:02:35.469Z,67.74
2023-02-11T21:05:03.248Z,68.51
2023-02-11T21:07:31.363Z,69.12
2023-02-11T21:09:59.167Z,68.29
2023-02-11T21:12:28.315Z,68.56
2023-02-11T21:14:57.086Z,68.86
2023-02-11T21:17:26.363Z,68.43
2023-02-11T21:19:54.145Z,68.19
2023-02-11T21:22:21.865Z,68.02
2023-02-11T21:24:51.733Z,69.16
2023-02-11T21:27:19.763Z,69.02
2023-02-11T21:29:54.287Z,70.28
2023-02-11T21:32:22.553Z,70.73
2023-02-11T21:34:50.270Z,70.04
2023-02-11T21:37:18.051Z,69.21
2023-02-11T21:39:45.774Z,68.96
2023-02-11T21:42:13.479Z,68.42
2023-02-11T21:44:44.315Z,70.81
2023-02-11T21:47:13.370Z,71.50
2023-02-11T21:49:41.251Z,72.04
2023-02-11T21:52:09.059Z,71.90
2023-02-11T21:54:36.740Z,71.95
2023-02-11T21:57:04.623Z,70.95
2023-02-11T21:59:32.716Z,71.23
2023-02-11T22:02:00.504Z,71.60
2023-02-11T22:04:29.702Z,70.29
2023-02-11T22:06:57.438Z,69.72
2023-02-11T22:09:25.280Z,69.82
2023-02-11T22:11:53.609Z,69.44
2023-02-11T22:14:21.377Z,69.45
2023-02-11T22:16:49.216Z,70.00
2023-02-11T22:19:17.282Z,70.28
2023-02-11T22:21:46.362Z,69.99
2023-02-11T22:24:14.036Z,69.97
2023-02-11T22:26:41.853Z,70.41
2023-02-11T22:29:09.672Z,70.83
2023-02-11T22:31:38.017Z,71.10
2023-02-11T22:34:08.193Z,71.13
2023-02-11T22:36:40.160Z,71.69
2023-02-11T22:39:12.818Z,72.14
2023-02-11T22:41:41.836Z,71.22
2023-02-11T22:44:10.289Z,70.61
2023-02-11T22:46:38.411Z,70.35
2023-02-11T22:49:09.042Z,70.22
2023-02-11T22:51:36.910Z,70.05
2023-02-11T22:54:06.602Z,70.13
2023-02-11T22:56:36.225Z,70.18
2023-02-11T22:59:10.227Z,71.83
2023-02-11T23:01:38.227Z,73.50
2023-02-11T23:04:11.184Z,72.75
2023-02-11T23:06:39.254Z,72.02
2023-02-11T23:09:07.677Z,71.23
2023-02-11T23:11:37.095Z,70.88
2023-02-11T23:14:05.273Z,70.54
2023-02-11T23:16:36.134Z,70.75
2023-02-11T23:19:07.192Z,71.51
2023-02-11T23:21:38.041Z,71.35
2023-02-11T23:24:08.469Z,71.78
2023-02-11T23:26:38.899Z,71.37
2023-02-11T23:29:09.553Z,71.37
2023-02-11T23:31:39.879Z,71.28
2023-02-11T23:34:08.395Z,71.00
2023-02-11T23:36:36.653Z,71.31
2023-02-11T23:39:05.550Z,71.36
2023-02-11T23:41:33.335Z,71.17
2023-02-11T23:44:02.549Z,71.01
2023-02-11T23:46:30.368Z,71.29
2023-02-11T23:48:58.086Z,71.12
2023-02-11T23:51:25.824Z,70.95
2023-02-11T23:53:55.987Z,71.08
2023-02-11T23:56:28.071Z,70.77
2023-02-11T23:58:57.988Z,70.90
